createdAt,value
2022-11-11T00:02:16.823Z,9.81
2022-11-11T00:05:19.280Z,9.88
2022-11-11T00:08:21.395Z,9.64
2022-11-11T00:11:23.779Z,9.61
2022-11-11T00:14:25.927Z,9.65
2022-11-11T00:17:46.747Z,9.52
2022-11-11T00:21:07.936Z,9.47
2022-11-11T00:24:50.807Z,9.47
2022-11-11T00:27:53.024Z,9.34
2022-11-11T00:31:06.648Z,9.24
2022-11-11T00:34:08.911Z,9.34
2022-11-11T00:37:11.153Z,9.51
2022-11-11T00:40:14.890Z,9.37
2022-11-11T00:43:16.944Z,9.38
2022-11-11T00:46:37.629Z,9.27
2022-11-11T00:49:58.997Z,9.13
2022-11-11T00:53:04.972Z,9.08
2022-11-11T00:56:07.591Z,9.19
2022-11-11T00:59:10.317Z,9.32
2022-11-11T01:02:12.905Z,9.14
2022-11-11T01:05:15.451Z,9.12
2022-11-11T01:08:17.904Z,9.15
2022-11-11T01:11:23.167Z,9.20
2022-11-11T01:14:25.150Z,9.07
2022-11-11T01:17:29.734Z,9.18
2022-11-11T01:20:32.396Z,9.03
2022-11-11T01:23:38.888Z,9.11
2022-11-11T01:26:42.137Z,9.16
2022-11-11T01:29:46.466Z,9.20
2022-11-11T01:32:48.967Z,9.17
2022-11-11T01:35:53.729Z,9.17
2022-11-11T01:38:59.638Z,9.18
2022-11-11T01:42:05.267Z,9.24
2022-11-11T01:45:47.012Z,9.23
2022-11-11T01:49:15.461Z,9.15
2022-11-11T01:52:43.219Z,9.11
2022-11-11T01:55:46.494Z,9.22
2022-11-11T01:58:52.466Z,9.04
2022-11-11T02:01:54.899Z,9.26
2022-11-11T02:05:17.137Z,9.18
2022-11-11T02:08:34.575Z,9.14
2022-11-11T02:12:00.447Z,9.10
2022-11-11T02:15:03.508Z,8.93
2022-11-11T02:18:07.632Z,9.15
2022-11-11T02:21:32.608Z,8.75
2022-11-11T02:24:35.490Z,8.87
2022-11-11T02:27:45.271Z,9.02
2022-11-11T02:30:50.828Z,8.98
2022-11-11T02:34:00.256Z,9.18
2022-11-11T02:37:09.776Z,9.08
2022-11-11T02:40:33.543Z,9.01
2022-11-11T02:43:36.568Z,8.92
2022-11-11T02:46:40.014Z,8.94
2022-11-11T02:49:47.824Z,8.97
2022-11-11T02:52:50.124Z,9.06
2022-11-11T02:55:52.901Z,9.03
2022-11-11T02:58:58.717Z,8.94
2022-11-11T03:02:02.248Z,9.12
2022-11-11T03:05:10.316Z,9.03
2022-11-11T03:08:15.948Z,9.10
2022-11-11T03:11:28.195Z,8.87
2022-11-11T03:14:34.209Z,9.21
2022-11-11T03:17:40.792Z,8.91
2022-11-11T03:21:35.598Z,8.94
2022-11-11T03:24:46.957Z,8.74
2022-11-11T03:27:49.796Z,8.89
2022-11-11T03:30:54.080Z,8.92
2022-11-11T03:34:18.815Z,8.98
2022-11-11T03:37:42.827Z,8.72
2022-11-11T03:40:48.114Z,8.79
2022-11-11T03:43:50.692Z,8.82
2022-11-11T03:46:53.421Z,8.70
2022-11-11T03:49:56.205Z,8.65
2022-11-11T03:52:59.156Z,8.63
2022-11-11T03:56:02.187Z,8.59
2022-11-11T03:59:04.815Z,8.47
2022-11-11T04:02:32.768Z,8.56
2022-11-11T04:05:57.988Z,8.60
2022-11-11T04:09:22.174Z,8.74
2022-11-11T04:12:27.038Z,8.62
2022-11-11T04:16:04.793Z,8.39
2022-11-11T04:19:26.003Z,8.61
2022-11-11T04:22:28.825Z,8.63
2022-11-11T04:25:55.821Z,8.49
2022-11-11T04:29:17.228Z,8.52
2022-11-11T04:32:40.236Z,8.62
2022-11-11T04:35:43.384Z,8.69
2022-11-11T04:39:05.140Z,8.80
2022-11-11T04:42:10.670Z,8.70
2022-11-11T04:45:34.071Z,8.55
2022-11-11T04:48:38.274Z,8.70
2022-11-11T04:51:59.670Z,8.68
2022-11-11T04:55:37.574Z,8.67
2022-11-11T04:58:40.286Z,8.64
2022-11-11T05:02:05.094Z,8.67
2022-11-11T05:05:07.964Z,8.80
2022-11-11T05:08:31.764Z,8.66
2022-11-11T05:11:40.360Z,8.80
2022-11-11T05:15:05.308Z,8.63
2022-11-11T05:18:36.245Z,8.70
2022-11-11T05:21:42.467Z,8.75
2022-11-11T05:25:04.750Z,8.68
2022-11-11T05:28:08.189Z,8.57
2022-11-11T05:31:13.758Z,8.66
2022-11-11T05:34:17.005Z,8.51
2022-11-11T05:37:22.771Z,8.52
2022-11-11T05:40:31.586Z,8.68
2022-11-11T05:43:37.621Z,8.70
2022-11-11T05:46:40.207Z,8.66
2022-11-11T05:49:45.211Z,8.59
2022-11-11T05:52:53.944Z,8.75
2022-11-11T05:55:56.885Z,8.51
2022-11-11T05:59:00.728Z,8.50
2022-11-11T06:02:04.865Z,8.57
2022-11-11T06:05:08.818Z,8.77
2022-11-11T06:08:11.490Z,8.48
2022-11-11T06:11:17.144Z,8.52
2022-11-11T06:14:22.991Z,8.75
2022-11-11T06:17:28.672Z,8.69
2022-11-11T06:20:38.274Z,8.57
2022-11-11T06:23:47.366Z,8.66
2022-11-11T06:26:56.053Z,8.49
2022-11-11T06:30:36.765Z,8.55
2022-11-11T06:33:29.855Z,8.45
2022-11-11T06:36:33.579Z,8.45
2022-11-11T06:39:42.829Z,8.56
2022-11-11T06:42:48.453Z,8.47
2022-11-11T06:45:56.952Z,8.45
2022-11-11T06:49:02.990Z,8.45
2022-11-11T06:52:06.270Z,8.45
2022-11-11T06:55:09.474Z,8.57
2022-11-11T06:58:17.649Z,8.44
2022-11-11T07:01:20.920Z,8.64
2022-11-11T07:04:30.756Z,8.64
2022-11-11T07:07:39.549Z,8.68
2022-11-11T07:10:48.475Z,8.51
2022-11-11T07:13:51.321Z,8.55
2022-11-11T07:17:03.379Z,8.56
2022-11-11T07:20:10.180Z,8.69
2022-11-11T07:23:19.238Z,8.57
2022-11-11T07:26:21.846Z,8.63
2022-11-11T07:29:29.310Z,8.95
2022-11-11T07:32:35.368Z,8.82
2022-11-11T07:35:43.939Z,8.84
2022-11-11T07:38:52.010Z,8.77
2022-11-11T07:41:58.069Z,8.88
2022-11-11T07:45:01.475Z,8.94
2022-11-11T07:48:10.009Z,8.92
2022-11-11T07:51:18.454Z,8.99
2022-11-11T07:54:21.957Z,9.03
2022-11-11T07:57:25.377Z,8.99
2022-11-11T08:00:32.029Z,9.06
2022-11-11T08:03:49.875Z,9.05
2022-11-11T08:07:00.059Z,9.11
2022-11-11T08:10:06.793Z,9.20
2022-11-11T08:13:31.597Z,9.23
2022-11-11T08:16:36.943Z,9.14
2022-11-11T08:19:42.180Z,9.40
2022-11-11T08:23:07.105Z,9.45
2022-11-11T08:26:09.921Z,9.54
2022-11-11T08:29:15.803Z,9.56
2022-11-11T08:32:18.322Z,9.76
2022-11-11T08:35:20.619Z,9.78
2022-11-11T08:38:23.795Z,9.86
2022-11-11T08:41:26.363Z,9.87
2022-11-11T08:44:28.518Z,9.98
2022-11-11T08:47:30.704Z,10.10
2022-11-11T08:50:32.766Z,10.21
2022-11-11T08:53:35.102Z,10.05
2022-11-11T08:56:37.109Z,10.19
2022-11-11T08:59:39.476Z,10.30
2022-11-11T09:02:41.481Z,10.51
2022-11-11T09:05:44.295Z,10.75
2022-11-11T09:08:46.787Z,10.95
2022-11-11T09:11:48.577Z,11.18
2022-11-11T09:14:50.719Z,11.30
2022-11-11T09:17:54.110Z,11.22
2022-11-11T09:21:01.024Z,11.22
2022-11-11T09:24:02.807Z,11.45
2022-11-11T09:27:04.721Z,11.48
2022-11-11T09:30:09.828Z,11.93
2022-11-11T09:33:12.629Z,11.63
2022-11-11T09:36:14.571Z,11.70
2022-11-11T09:39:16.601Z,11.96
2022-11-11T09:42:41.900Z,11.69
2022-11-11T09:46:05.223Z,11.79
2022-11-11T09:49:09.840Z,11.86
2022-11-11T09:52:26.449Z,11.56
2022-11-11T09:55:39.943Z,11.62
2022-11-11T09:58:51.780Z,11.71
2022-11-11T10:01:59.057Z,11.51
2022-11-11T10:05:10.380Z,11.84
2022-11-11T10:08:23.327Z,12.06
2022-11-11T10:11:37.427Z,12.13
2022-11-11T10:14:49.401Z,12.01
2022-11-11T10:18:06.522Z,11.83
2022-11-11T10:21:21.135Z,11.85
2022-11-11T10:24:33.410Z,11.84
2022-11-11T10:27:46.486Z,11.71
2022-11-11T10:30:52.420Z,12.05
2022-11-11T10:34:11.286Z,12.14
2022-11-11T10:37:41.421Z,12.02
2022-11-11T10:40:54.331Z,12.26
2022-11-11T10:43:56.558Z,12.49
2022-11-11T10:47:42.617Z,12.22
2022-11-11T10:50:55.325Z,12.35
2022-11-11T10:54:09.541Z,12.22
2022-11-11T10:57:36.686Z,12.72
2022-11-11T11:00:44.243Z,12.64
2022-11-11T11:04:31.433Z,12.68
2022-11-11T11:08:00.300Z,12.79
2022-11-11T11:11:28.183Z,12.76
2022-11-11T11:14:36.938Z,13.20
2022-11-11T11:17:59.068Z,13.09
2022-11-11T11:21:06.200Z,13.18
2022-11-11T11:24:31.798Z,12.81
2022-11-11T11:27:33.771Z,12.92
2022-11-11T11:30:36.018Z,13.04
2022-11-11T11:33:57.092Z,13.16
2022-11-11T11:37:02.541Z,13.15
2022-11-11T11:40:08.158Z,12.77
2022-11-11T11:43:43.463Z,12.61
2022-11-11T11:46:46.764Z,12.74
2022-11-11T11:50:26.437Z,12.71
2022-11-11T11:54:13.430Z,12.81
2022-11-11T11:57:48.477Z,12.71
2022-11-11T12:01:11.301Z,12.82
2022-11-11T12:04:44.153Z,12.72
2022-11-11T12:08:36.504Z,12.51
2022-11-11T12:11:46.640Z,12.85
2022-11-11T12:15:17.150Z,12.79
2022-11-11T12:18:31.248Z,12.74
2022-11-11T12:22:07.776Z,12.65
2022-11-11T12:25:30.542Z,12.75
2022-11-11T12:28:43.672Z,12.57
2022-11-11T12:32:36.472Z,12.80
2022-11-11T12:36:12.286Z,12.75
2022-11-11T12:39:40.841Z,12.81
2022-11-11T12:43:33.327Z,12.92
2022-11-11T12:46:51.935Z,12.82
2022-11-11T12:50:07.525Z,13.02
2022-11-11T12:53:30.617Z,13.18
2022-11-11T12:56:57.220Z,13.26
2022-11-11T13:00:10.599Z,13.46
2022-11-11T13:03:30.802Z,13.23
2022-11-11T13:06:58.461Z,13.36
2022-11-11T13:10:27.229Z,13.25
2022-11-11T13:14:14.469Z,13.23
2022-11-11T13:17:16.451Z,13.38
2022-11-11T13:20:36.690Z,13.24
2022-11-11T13:23:38.640Z,13.50
2022-11-11T13:26:54.743Z,13.56
2022-11-11T13:30:39.331Z,13.44
2022-11-11T13:33:48.687Z,13.21
2022-11-11T13:36:55.901Z,13.28
2022-11-11T13:40:08.520Z,12.96
2022-11-11T13:43:26.257Z,12.91
2022-11-11T13:46:49.830Z,13.24
2022-11-11T13:50:28.105Z,13.02
2022-11-11T13:53:37.776Z,12.81
2022-11-11T13:56:46.950Z,12.94
2022-11-11T14:00:18.202Z,12.83
2022-11-11T14:03:20.508Z,12.76
2022-11-11T14:06:29.293Z,12.92
2022-11-11T14:10:02.966Z,12.81
2022-11-11T14:13:26.575Z,12.83
2022-11-11T14:16:35.064Z,12.70
2022-11-11T14:19:37.180Z,12.87
2022-11-11T14:22:39.425Z,12.66
2022-11-11T14:25:42.327Z,12.94
2022-11-11T14:29:00.766Z,12.99
2022-11-11T14:33:06.601Z,12.82
2022-11-11T14:36:43.040Z,12.84
2022-11-11T14:39:55.833Z,12.93
2022-11-11T14:43:00.799Z,12.97
2022-11-11T14:46:17.788Z,12.93
2022-11-11T14:49:55.973Z,12.79
2022-11-11T14:53:25.395Z,12.88
2022-11-11T14:56:29.054Z,13.00
2022-11-11T14:59:34.933Z,12.97
2022-11-11T15:03:11.293Z,12.85
2022-11-11T15:06:33.824Z,12.78
2022-11-11T15:10:00.729Z,12.99
2022-11-11T15:13:47.550Z,12.98
2022-11-11T15:17:10.681Z,13.04
2022-11-11T15:20:56.360Z,13.06
2022-11-11T15:24:21.351Z,12.79
2022-11-11T15:28:13.846Z,13.10
2022-11-11T15:31:59.247Z,12.94
2022-11-11T15:35:27.374Z,12.72
2022-11-11T15:38:30.369Z,12.74
2022-11-11T15:41:40.348Z,12.77
2022-11-11T15:44:42.577Z,12.55
2022-11-11T15:47:46.830Z,12.69
2022-11-11T15:50:49.241Z,12.45
2022-11-11T15:53:51.253Z,12.42
2022-11-11T15:56:55.242Z,12.47
2022-11-11T16:00:00.593Z,12.42
2022-11-11T16:03:03.472Z,12.25
2022-11-11T16:06:12.655Z,12.11
2022-11-11T16:09:24.533Z,12.26
2022-11-11T16:12:39.970Z,12.04
2022-11-11T16:16:00.051Z,12.12
2022-11-11T16:19:21.574Z,12.21
2022-11-11T16:22:32.359Z,12.10
2022-11-11T16:25:34.802Z,12.12
2022-11-11T16:28:54.489Z,11.98
2022-11-11T16:31:56.428Z,11.77
2022-11-11T16:34:58.282Z,12.03
2022-11-11T16:38:00.283Z,11.86
2022-11-11T16:41:02.399Z,11.92
2022-11-11T16:44:04.539Z,11.87
2022-11-11T16:47:32.329Z,11.90
2022-11-11T16:50:59.464Z,11.79
2022-11-11T16:54:30.935Z,11.36
2022-11-11T16:57:34.774Z,11.52
2022-11-11T17:00:38.871Z,11.50
2022-11-11T17:03:58.644Z,11.57
2022-11-11T17:07:00.631Z,11.60
2022-11-11T17:10:09.141Z,11.45
2022-11-11T17:13:11.412Z,11.45
2022-11-11T17:16:14.404Z,11.35
2022-11-11T17:19:16.296Z,11.24
2022-11-11T17:22:18.217Z,11.20
2022-11-11T17:25:20.522Z,11.21
2022-11-11T17:28:24.057Z,11.26
2022-11-11T17:31:26.090Z,11.02
2022-11-11T17:34:28.114Z,11.02
2022-11-11T17:37:38.201Z,10.96
2022-11-11T17:40:48.129Z,10.71
2022-11-11T17:43:50.591Z,10.70
2022-11-11T17:46:52.887Z,10.77
2022-11-11T17:49:59.005Z,10.63
2022-11-11T17:53:02.742Z,10.60
2022-11-11T17:56:06.408Z,10.63
2022-11-11T17:59:08.667Z,10.76
2022-11-11T18:02:13.367Z,10.74
2022-11-11T18:05:15.955Z,10.69
2022-11-11T18:08:17.963Z,10.66
2022-11-11T18:11:23.026Z,10.53
2022-11-11T18:14:28.311Z,10.61
2022-11-11T18:17:30.495Z,10.45
2022-11-11T18:20:33.484Z,10.19
2022-11-11T18:23:40.684Z,10.06
2022-11-11T18:26:46.586Z,9.98
2022-11-11T18:29:49.347Z,10.01
2022-11-11T18:32:51.765Z,9.86
2022-11-11T18:35:54.337Z,9.90
2022-11-11T18:38:56.861Z,9.98
2022-11-11T18:41:59.249Z,9.98
2022-11-11T18:45:01.786Z,9.70
2022-11-11T18:48:06.849Z,9.69
2022-11-11T18:51:14.766Z,9.81
2022-11-11T18:54:30.170Z,9.81
2022-11-11T18:57:33.541Z,9.59
2022-11-11T19:00:38.525Z,9.91
2022-11-11T19:03:42.628Z,9.76
2022-11-11T19:06:46.485Z,9.68
2022-11-11T19:09:49.094Z,9.78
2022-11-11T19:12:54.564Z,9.74
2022-11-11T19:15:57.444Z,9.66
2022-11-11T19:19:07.201Z,9.55
2022-11-11T19:22:10.021Z,9.59
2022-11-11T19:25:15.797Z,9.55
2022-11-11T19:28:18.473Z,9.42
2022-11-11T19:31:27.082Z,9.55
2022-11-11T19:34:37.642Z,9.50
2022-11-11T19:37:40.405Z,9.33
2022-11-11T19:40:47.251Z,9.55
2022-11-11T19:43:54.080Z,9.48
2022-11-11T19:47:02.251Z,9.24
2022-11-11T19:50:05.469Z,9.50
2022-11-11T19:53:13.977Z,9.37
2022-11-11T19:56:23.815Z,9.18
2022-11-11T19:59:31.876Z,9.12
2022-11-11T20:02:37.562Z,9.07
2022-11-11T20:05:40.080Z,9.14
2022-11-11T20:08:47.849Z,9.20
2022-11-11T20:11:53.017Z,9.27
2022-11-11T20:15:02.354Z,8.85
2022-11-11T20:18:12.957Z,9.01
2022-11-11T20:21:18.304Z,8.90
2022-11-11T20:24:27.721Z,8.69
2022-11-11T20:27:36.266Z,8.73
2022-11-11T20:30:46.476Z,8.86
2022-11-11T20:33:57.311Z,8.73
2022-11-11T20:37:09.294Z,8.97
2022-11-11T20:40:14.611Z,8.64
2022-11-11T20:43:24.834Z,8.94
2022-11-11T20:46:31.474Z,9.12
2022-11-11T20:49:45.168Z,8.91
2022-11-11T20:52:48.058Z,8.81
2022-11-11T20:55:54.930Z,8.59
2022-11-11T20:59:03.738Z,8.52
2022-11-11T21:02:08.732Z,8.41
2022-11-11T21:05:14.879Z,8.42
2022-11-11T21:08:29.967Z,8.30
2022-11-11T21:11:35.439Z,8.48
2022-11-11T21:14:46.847Z,8.39
2022-11-11T21:17:52.726Z,8.44
2022-11-11T21:20:56.118Z,8.54
2022-11-11T21:24:07.244Z,8.76
2022-11-11T21:27:13.175Z,8.55
2022-11-11T21:30:19.553Z,8.70
2022-11-11T21:33:25.114Z,8.71
2022-11-11T21:36:33.381Z,8.56
2022-11-11T21:39:39.551Z,8.41
2022-11-11T21:42:48.280Z,8.37
2022-11-11T21:45:54.345Z,7.98
2022-11-11T21:48:57.689Z,8.03
2022-11-11T21:52:04.131Z,7.58
2022-11-11T21:55:13.388Z,7.69
2022-11-11T21:58:29.762Z,7.89
2022-11-11T22:01:44.152Z,7.91
2022-11-11T22:04:52.882Z,7.92
2022-11-11T22:07:56.412Z,7.79
2022-11-11T22:11:16.041Z,8.00
2022-11-11T22:14:19.236Z,7.97
2022-11-11T22:17:28.108Z,7.41
2022-11-11T22:20:33.641Z,7.69
2022-11-11T22:23:41.972Z,7.70
2022-11-11T22:26:51.509Z,7.60
2022-11-11T22:29:57.251Z,7.48
2022-11-11T22:32:59.696Z,7.55
2022-11-11T22:36:12.142Z,7.23
2022-11-11T22:39:14.987Z,7.61
2022-11-11T22:42:20.615Z,7.35
2022-11-11T22:45:32.328Z,7.49
2022-11-11T22:48:37.192Z,7.23
2022-11-11T22:51:45.193Z,7.17
2022-11-11T22:54:54.151Z,7.19
2022-11-11T22:58:02.727Z,6.93
2022-11-11T23:01:10.986Z,7.01
2022-11-11T23:04:13.687Z,6.99
2022-11-11T23:07:16.383Z,6.97
2022-11-11T23:10:19.030Z,6.75
2022-11-11T23:13:20.902Z,7.04
2022-11-11T23:16:23.212Z,6.91
2022-11-11T23:19:28.196Z,6.92
2022-11-11T23:22:30.548Z,6.92
2022-11-11T23:25:34.398Z,6.80
2022-11-11T23:28:39.308Z,6.88
2022-11-11T23:31:41.539Z,6.94
2022-11-11T23:34:43.584Z,6.93
2022-11-11T23:37:45.663Z,6.95
2022-11-11T23:40:47.653Z,7.08
2022-11-11T23:43:50.022Z,6.94
2022-11-11T23:46:52.445Z,6.94
2022-11-11T23:49:54.125Z,6.70
2022-11-11T23:52:56.182Z,6.71
2022-11-11T23:55:58.844Z,6.98
2022-11-11T23:59:00.943Z,6.97
